Schedule Details


Flight Number: CTN4408
Departure: Zemunik (LDZD) at 12:40
Arrival: Frankfurt/main (EDDF) at 14:20
Route: ALANU L868 GISER UL862 SABAD DCT PIKIT DCT SUBEN UQ162 PSA

Weather Information
LDZD 221600Z 14011KT 110V170 9999 FEW040 21/13 Q1017 NOSIG
EDDF 221550Z 21006KT CAVOK 23/09 Q1009 NOSIG
Schedule Frequency

Route Map